createdAt,value
2018-10-09T00:00:47.040Z,71.13
2018-10-09T00:01:51.613Z,71.25
2018-10-09T00:02:55.771Z,71.22
2018-10-09T00:03:59.888Z,70.62
2018-10-09T00:05:03.981Z,71.08
2018-10-09T00:06:08.041Z,70.81
2018-10-09T00:07:12.149Z,70.79
2018-10-09T00:08:16.161Z,70.73
2018-10-09T00:09:20.380Z,70.74
2018-10-09T00:10:24.670Z,70.56
2018-10-09T00:11:29.119Z,70.54
2018-10-09T00:12:33.300Z,70.78
2018-10-09T00:13:37.466Z,70.96
2018-10-09T00:14:41.585Z,70.95
2018-10-09T00:15:45.787Z,70.82
2018-10-09T00:16:50.028Z,70.48
2018-10-09T00:17:54.120Z,70.62
2018-10-09T00:18:58.286Z,70.29
2018-10-09T00:20:02.537Z,70.47
2018-10-09T00:21:06.754Z,70.60
2018-10-09T00:22:11.072Z,70.72
2018-10-09T00:23:15.201Z,70.89
2018-10-09T00:24:19.404Z,70.21
2018-10-09T00:25:23.785Z,70.43
2018-10-09T00:26:27.988Z,70.60
2018-10-09T00:27:33.092Z,70.58
2018-10-09T00:28:37.306Z,70.38
2018-10-09T00:29:41.488Z,70.42
2018-10-09T00:30:45.556Z,70.38
2018-10-09T00:31:49.873Z,70.02
2018-10-09T00:32:54.499Z,69.91
2018-10-09T00:33:58.907Z,70.00
2018-10-09T00:35:03.110Z,70.02
2018-10-09T00:36:07.319Z,69.89
2018-10-09T00:37:11.424Z,69.66
2018-10-09T00:38:15.440Z,70.10
2018-10-09T00:39:19.568Z,69.85
2018-10-09T00:40:23.692Z,69.93
2018-10-09T00:41:27.960Z,69.62
2018-10-09T00:42:32.077Z,69.58
2018-10-09T00:43:36.340Z,70.18
2018-10-09T00:44:41.009Z,70.07
2018-10-09T00:45:45.256Z,70.30
2018-10-09T00:46:49.400Z,69.83
2018-10-09T00:47:53.505Z,70.02
2018-10-09T00:48:57.697Z,70.14
2018-10-09T00:50:01.797Z,69.84
2018-10-09T00:51:06.357Z,70.06
2018-10-09T00:52:10.618Z,69.93
2018-10-09T00:53:15.085Z,70.00
2018-10-09T00:54:19.194Z,70.35
2018-10-09T00:55:23.289Z,70.03
2018-10-09T00:56:27.395Z,69.83
2018-10-09T00:57:33.622Z,69.96
2018-10-09T00:58:37.742Z,70.28
2018-10-09T00:59:41.961Z,70.23
2018-10-09T01:00:46.605Z,70.11
2018-10-09T01:01:50.665Z,70.09
2018-10-09T01:02:54.897Z,70.20
2018-10-09T01:03:59.225Z,70.31
2018-10-09T01:05:03.347Z,70.28
2018-10-09T01:06:07.480Z,70.29
2018-10-09T01:07:11.548Z,70.09
2018-10-09T01:08:15.668Z,69.77
2018-10-09T01:09:20.067Z,70.17
2018-10-09T01:10:24.176Z,69.99
2018-10-09T01:11:28.393Z,69.78
2018-10-09T01:12:32.650Z,69.94
2018-10-09T01:13:36.826Z,69.92
2018-10-09T01:14:41.296Z,70.06
2018-10-09T01:15:45.453Z,70.11
2018-10-09T01:16:49.598Z,69.97
2018-10-09T01:17:53.728Z,70.15
2018-10-09T01:18:57.805Z,70.02
2018-10-09T01:20:01.882Z,70.22
2018-10-09T01:21:06.099Z,70.22
2018-10-09T01:22:10.284Z,70.42
2018-10-09T01:23:14.506Z,70.46
2018-10-09T01:24:18.587Z,70.28
2018-10-09T01:25:22.745Z,70.60
2018-10-09T01:26:26.868Z,70.76
2018-10-09T01:27:34.244Z,70.80
2018-10-09T01:28:38.337Z,70.82
2018-10-09T01:29:42.466Z,70.73
2018-10-09T01:30:46.574Z,70.83
2018-10-09T01:31:54.790Z,71.09
2018-10-09T01:32:58.872Z,71.09
2018-10-09T01:34:02.973Z,70.97
2018-10-09T01:35:07.277Z,70.96
2018-10-09T01:36:11.503Z,70.87
2018-10-09T01:37:15.715Z,71.01
2018-10-09T01:38:19.772Z,71.13
2018-10-09T01:39:23.953Z,70.95
2018-10-09T01:40:28.189Z,71.04
2018-10-09T01:41:32.264Z,70.92
2018-10-09T01:42:36.361Z,70.93
2018-10-09T01:43:40.503Z,70.90
2018-10-09T01:44:44.620Z,70.73
2018-10-09T01:45:48.733Z,70.74
2018-10-09T01:46:52.827Z,70.95
2018-10-09T01:47:56.989Z,70.94
2018-10-09T01:49:01.073Z,71.09
2018-10-09T01:50:05.128Z,70.79
2018-10-09T01:51:09.289Z,70.91
2018-10-09T01:52:13.371Z,71.05
2018-10-09T01:53:17.438Z,71.15
2018-10-09T01:54:21.597Z,71.29
2018-10-09T01:55:25.690Z,71.14
2018-10-09T01:56:29.737Z,71.56
2018-10-09T01:57:33.954Z,71.42
2018-10-09T01:58:38.107Z,71.40
2018-10-09T01:59:44.600Z,71.80
2018-10-09T02:00:48.832Z,71.71
2018-10-09T02:01:53.010Z,71.52
2018-10-09T02:02:57.263Z,71.92
2018-10-09T02:04:01.370Z,71.69
2018-10-09T02:05:05.611Z,71.80
2018-10-09T02:06:10.591Z,71.81
2018-10-09T02:07:15.308Z,72.01
2018-10-09T02:08:19.416Z,71.81
2018-10-09T02:09:24.235Z,72.13
2018-10-09T02:10:28.341Z,72.02
2018-10-09T02:11:32.556Z,71.89
2018-10-09T02:12:36.831Z,71.81
2018-10-09T02:13:40.870Z,71.73
2018-10-09T02:14:45.216Z,71.89
2018-10-09T02:15:49.369Z,71.95
2018-10-09T02:16:53.734Z,72.13
2018-10-09T02:17:57.840Z,71.83
2018-10-09T02:19:02.264Z,71.76
2018-10-09T02:20:06.499Z,71.78
2018-10-09T02:21:10.495Z,71.66
2018-10-09T02:22:14.729Z,71.75
2018-10-09T02:23:19.160Z,71.99
2018-10-09T02:24:23.306Z,72.02
2018-10-09T02:25:27.551Z,72.04
2018-10-09T02:26:31.798Z,71.95
2018-10-09T02:27:35.982Z,72.00
2018-10-09T02:28:40.179Z,71.91
2018-10-09T02:29:44.404Z,72.02
2018-10-09T02:30:48.556Z,72.21
2018-10-09T02:31:52.777Z,72.13
2018-10-09T02:32:57.391Z,71.98
2018-10-09T02:34:01.611Z,72.18
2018-10-09T02:35:05.805Z,72.06
2018-10-09T02:36:10.011Z,72.10
2018-10-09T02:37:14.190Z,72.24
2018-10-09T02:38:18.324Z,72.32
2018-10-09T02:39:22.620Z,72.21
2018-10-09T02:40:26.870Z,71.99
2018-10-09T02:41:30.905Z,72.13
2018-10-09T02:42:35.106Z,72.28
2018-10-09T02:43:39.230Z,72.05
2018-10-09T02:44:43.356Z,72.29
2018-10-09T02:45:47.576Z,72.40
2018-10-09T02:46:51.655Z,72.31
2018-10-09T02:47:55.830Z,72.29
2018-10-09T02:48:59.967Z,72.19
2018-10-09T02:50:04.296Z,72.25
2018-10-09T02:51:09.437Z,72.17
2018-10-09T02:52:13.632Z,72.28
2018-10-09T02:53:17.716Z,72.31
2018-10-09T02:54:21.916Z,72.34
2018-10-09T02:55:26.012Z,72.43
2018-10-09T02:56:30.288Z,72.34
2018-10-09T02:57:34.437Z,72.35
2018-10-09T02:58:38.515Z,72.50
2018-10-09T02:59:42.619Z,72.36
2018-10-09T03:00:46.745Z,72.41
2018-10-09T03:01:50.941Z,72.20
2018-10-09T03:02:55.055Z,72.56
2018-10-09T03:03:59.484Z,72.25
2018-10-09T03:05:03.655Z,72.12
2018-10-09T03:06:08.725Z,72.21
2018-10-09T03:07:12.807Z,72.41
2018-10-09T03:08:16.913Z,72.30
2018-10-09T03:09:21.015Z,72.31
2018-10-09T03:10:26.222Z,72.56
2018-10-09T03:11:30.394Z,72.35
2018-10-09T03:12:34.419Z,72.43
2018-10-09T03:13:38.632Z,72.28
2018-10-09T03:14:42.851Z,72.41
2018-10-09T03:15:47.038Z,72.50
2018-10-09T03:16:51.091Z,72.57
2018-10-09T03:17:55.446Z,72.27
2018-10-09T03:18:59.605Z,72.35
2018-10-09T03:20:03.882Z,72.45
2018-10-09T03:21:07.969Z,72.43
2018-10-09T03:22:12.455Z,72.35
2018-10-09T03:23:16.530Z,72.57
2018-10-09T03:24:20.821Z,72.68
2018-10-09T03:25:24.900Z,72.64
2018-10-09T03:26:29.012Z,72.69
2018-10-09T03:27:33.163Z,72.58
2018-10-09T03:28:37.428Z,72.60
2018-10-09T03:29:41.625Z,72.59
2018-10-09T03:30:45.681Z,72.49
2018-10-09T03:31:50.293Z,72.81
2018-10-09T03:32:54.427Z,72.47
2018-10-09T03:33:59.971Z,72.53
2018-10-09T03:35:04.181Z,72.73
2018-10-09T03:36:08.396Z,72.64
2018-10-09T03:37:12.560Z,72.72
2018-10-09T03:38:16.753Z,72.74
2018-10-09T03:39:20.937Z,72.64
2018-10-09T03:40:25.044Z,72.58
2018-10-09T03:41:32.555Z,72.57
2018-10-09T03:42:36.722Z,72.73
2018-10-09T03:43:40.784Z,72.73
2018-10-09T03:44:45.125Z,72.80
2018-10-09T03:45:49.141Z,72.80
2018-10-09T03:46:53.216Z,72.81
2018-10-09T03:47:57.319Z,72.81
2018-10-09T03:49:01.511Z,72.89
2018-10-09T03:50:05.587Z,72.71
2018-10-09T03:51:09.640Z,72.84
2018-10-09T03:52:13.717Z,72.84
2018-10-09T03:53:17.843Z,72.74
2018-10-09T03:54:22.052Z,72.57
2018-10-09T03:55:26.300Z,72.86
2018-10-09T03:56:30.435Z,72.87
2018-10-09T03:57:34.645Z,72.79
2018-10-09T03:58:38.774Z,72.94
2018-10-09T03:59:42.900Z,72.92
2018-10-09T04:00:47.035Z,73.03
2018-10-09T04:01:51.129Z,72.85
2018-10-09T04:02:55.248Z,72.88
2018-10-09T04:03:59.525Z,73.02
2018-10-09T04:05:03.696Z,72.91
2018-10-09T04:06:07.821Z,73.13
2018-10-09T04:07:11.992Z,73.04
2018-10-09T04:08:16.212Z,72.83
2018-10-09T04:09:20.430Z,73.13
2018-10-09T04:10:24.672Z,73.04
2018-10-09T04:11:28.813Z,73.20
2018-10-09T04:12:33.096Z,73.05
2018-10-09T04:13:37.322Z,72.99
2018-10-09T04:14:41.391Z,73.03
2018-10-09T04:15:45.483Z,73.06
2018-10-09T04:16:49.536Z,73.01
2018-10-09T04:17:53.673Z,73.09
2018-10-09T04:18:57.789Z,72.85
2018-10-09T04:20:01.909Z,73.09
2018-10-09T04:21:06.128Z,73.09
2018-10-09T04:22:14.543Z,73.25
2018-10-09T04:23:18.665Z,72.98
2018-10-09T04:24:23.056Z,73.12
2018-10-09T04:25:27.279Z,73.31
2018-10-09T04:26:31.692Z,73.41
2018-10-09T04:27:35.771Z,73.28
2018-10-09T04:28:39.997Z,73.21
2018-10-09T04:29:44.101Z,73.25
2018-10-09T04:30:48.301Z,73.25
2018-10-09T04:31:52.424Z,73.44
2018-10-09T04:32:57.089Z,73.26
2018-10-09T04:34:01.201Z,73.31
2018-10-09T04:35:05.478Z,73.45
2018-10-09T04:36:09.594Z,73.44
2018-10-09T04:37:16.021Z,73.36
2018-10-09T04:38:20.750Z,73.45
2018-10-09T04:39:24.886Z,73.32
2018-10-09T04:40:29.080Z,73.13
2018-10-09T04:41:33.335Z,73.36
2018-10-09T04:42:37.475Z,73.20
2018-10-09T04:43:41.621Z,73.51
2018-10-09T04:44:45.767Z,73.40
2018-10-09T04:45:50.971Z,73.37
2018-10-09T04:46:58.543Z,73.27
2018-10-09T04:48:02.823Z,73.37
2018-10-09T04:49:07.154Z,73.35
2018-10-09T04:50:11.258Z,73.40
2018-10-09T04:51:15.651Z,73.44
2018-10-09T04:52:19.886Z,73.63
2018-10-09T04:53:23.974Z,73.57
2018-10-09T04:54:28.220Z,73.47
2018-10-09T04:55:32.329Z,73.61
2018-10-09T04:56:36.512Z,73.57
2018-10-09T04:57:40.597Z,73.66
2018-10-09T04:58:44.826Z,73.69
2018-10-09T04:59:49.295Z,73.58
2018-10-09T05:00:53.413Z,73.65
2018-10-09T05:01:57.597Z,73.78
2018-10-09T05:03:01.853Z,73.67
2018-10-09T05:04:06.091Z,73.88
2018-10-09T05:05:10.141Z,73.75
2018-10-09T05:06:14.470Z,73.77
2018-10-09T05:07:18.765Z,73.94
2018-10-09T05:08:22.898Z,73.73
2018-10-09T05:09:27.074Z,73.71
2018-10-09T05:10:31.280Z,73.89
2018-10-09T05:11:35.476Z,73.73
2018-10-09T05:12:39.513Z,73.82
2018-10-09T05:13:43.578Z,73.89
2018-10-09T05:14:47.735Z,73.81
2018-10-09T05:15:51.922Z,73.93
2018-10-09T05:16:56.021Z,73.89
2018-10-09T05:18:00.245Z,73.81
2018-10-09T05:19:04.417Z,73.91
2018-10-09T05:20:09.964Z,73.77
2018-10-09T05:21:14.213Z,73.97
2018-10-09T05:22:18.381Z,73.91
2018-10-09T05:23:22.566Z,73.76
2018-10-09T05:24:28.119Z,73.92
2018-10-09T05:25:32.355Z,74.11
2018-10-09T05:26:36.606Z,74.13
2018-10-09T05:27:40.784Z,73.94
2018-10-09T05:28:44.933Z,73.97
2018-10-09T05:29:49.355Z,74.15
2018-10-09T05:30:53.605Z,74.03
2018-10-09T05:31:57.656Z,74.24
2018-10-09T05:33:01.905Z,74.13
2018-10-09T05:34:06.055Z,73.99
2018-10-09T05:35:10.245Z,73.84
2018-10-09T05:36:15.205Z,74.13
2018-10-09T05:37:19.338Z,74.13
2018-10-09T05:38:23.448Z,74.19
2018-10-09T05:39:27.856Z,74.26
2018-10-09T05:40:31.957Z,74.09
2018-10-09T05:41:36.748Z,74.06
2018-10-09T05:42:41.015Z,74.09
2018-10-09T05:43:45.456Z,74.17
2018-10-09T05:44:49.752Z,73.97
2018-10-09T05:45:53.876Z,74.19
2018-10-09T05:46:58.013Z,74.16
2018-10-09T05:48:02.160Z,74.04
2018-10-09T05:49:07.160Z,73.97
2018-10-09T05:50:11.787Z,74.02
2018-10-09T05:51:15.981Z,73.77
2018-10-09T05:52:20.338Z,73.82
2018-10-09T05:53:24.389Z,73.80
2018-10-09T05:54:28.592Z,74.01
2018-10-09T05:55:34.663Z,73.92
2018-10-09T05:56:39.065Z,73.75
2018-10-09T05:57:43.153Z,73.78
2018-10-09T05:58:47.306Z,73.87
2018-10-09T05:59:51.361Z,73.94
2018-10-09T06:00:55.482Z,73.74
2018-10-09T06:01:59.765Z,73.67
2018-10-09T06:03:03.990Z,73.79
2018-10-09T06:04:08.290Z,73.66
2018-10-09T06:05:12.386Z,73.80
2018-10-09T06:06:16.549Z,73.60
2018-10-09T06:07:20.740Z,73.87
2018-10-09T06:08:24.918Z,73.75
2018-10-09T06:09:29.063Z,73.90
2018-10-09T06:10:33.142Z,73.65
2018-10-09T06:11:37.597Z,73.63
2018-10-09T06:12:41.812Z,73.67
2018-10-09T06:13:46.655Z,73.67
2018-10-09T06:14:50.774Z,73.61
2018-10-09T06:15:54.969Z,73.72
2018-10-09T06:16:59.185Z,73.53
2018-10-09T06:18:03.396Z,73.67
2018-10-09T06:19:07.525Z,73.56
2018-10-09T06:20:11.910Z,73.82
2018-10-09T06:21:16.118Z,73.58
2018-10-09T06:22:20.258Z,73.76
2018-10-09T06:23:24.338Z,73.76
2018-10-09T06:24:28.626Z,73.76
2018-10-09T06:25:32.638Z,73.75
2018-10-09T06:26:36.833Z,73.70
2018-10-09T06:27:41.301Z,73.71
2018-10-09T06:28:45.350Z,73.92
2018-10-09T06:29:49.586Z,73.79
2018-10-09T06:30:53.714Z,73.74
2018-10-09T06:31:57.839Z,73.85
2018-10-09T06:33:01.907Z,73.68
2018-10-09T06:34:05.961Z,73.91
2018-10-09T06:35:10.017Z,73.74
2018-10-09T06:36:14.068Z,73.67
2018-10-09T06:37:18.303Z,73.61
2018-10-09T06:38:22.370Z,73.72
2018-10-09T06:39:26.483Z,73.81
2018-10-09T06:40:30.593Z,73.65
2018-10-09T06:41:34.878Z,73.69
2018-10-09T06:42:39.047Z,73.64
2018-10-09T06:43:43.105Z,73.58
2018-10-09T06:44:47.119Z,73.48
2018-10-09T06:45:51.299Z,73.69
2018-10-09T06:46:55.433Z,73.68
2018-10-09T06:47:59.586Z,73.54
2018-10-09T06:49:03.689Z,73.63
2018-10-09T06:50:07.796Z,73.46
2018-10-09T06:51:11.935Z,73.64
2018-10-09T06:52:16.087Z,73.40
2018-10-09T06:53:20.149Z,73.38
2018-10-09T06:54:24.490Z,73.41
2018-10-09T06:55:28.534Z,73.65
2018-10-09T06:56:32.626Z,73.32
2018-10-09T06:57:36.811Z,73.44
2018-10-09T06:58:40.848Z,73.41
2018-10-09T06:59:45.000Z,73.52
2018-10-09T07:00:49.062Z,73.40
2018-10-09T07:01:53.144Z,73.42
2018-10-09T07:02:57.248Z,73.27
2018-10-09T07:04:01.453Z,73.42
2018-10-09T07:05:05.761Z,73.16
2018-10-09T07:06:09.872Z,73.41
2018-10-09T07:07:14.016Z,73.11
2018-10-09T07:08:18.066Z,73.33
2018-10-09T07:09:22.197Z,73.29
2018-10-09T07:10:26.228Z,73.38
2018-10-09T07:11:30.507Z,73.34
2018-10-09T07:12:34.816Z,73.24
2018-10-09T07:13:38.922Z,73.34
2018-10-09T07:14:43.004Z,72.96
2018-10-09T07:15:50.615Z,73.23
2018-10-09T07:16:54.765Z,73.15
2018-10-09T07:17:58.907Z,73.26
2018-10-09T07:19:03.189Z,73.13
2018-10-09T07:20:07.331Z,72.96
2018-10-09T07:21:11.590Z,72.97
2018-10-09T07:22:15.636Z,72.99
2018-10-09T07:23:19.757Z,72.95
2018-10-09T07:24:23.941Z,72.76
2018-10-09T07:25:28.315Z,72.88
2018-10-09T07:26:32.521Z,72.79
2018-10-09T07:27:36.615Z,72.92
2018-10-09T07:28:40.805Z,72.78
2018-10-09T07:29:45.095Z,72.52
2018-10-09T07:30:49.283Z,72.62
2018-10-09T07:31:54.820Z,72.62
2018-10-09T07:32:58.875Z,72.43
2018-10-09T07:34:02.975Z,72.21
2018-10-09T07:35:07.798Z,72.27
2018-10-09T07:36:11.946Z,72.25
2018-10-09T07:37:16.003Z,72.20
2018-10-09T07:38:20.222Z,71.99
2018-10-09T07:39:24.327Z,72.04
2018-10-09T07:40:28.397Z,71.97
2018-10-09T07:41:32.513Z,72.18
2018-10-09T07:42:36.648Z,72.13
2018-10-09T07:43:40.802Z,71.68
2018-10-09T07:44:44.913Z,71.89
2018-10-09T07:45:49.007Z,72.08
2018-10-09T07:46:53.080Z,71.91
2018-10-09T07:47:57.267Z,71.84
2018-10-09T07:49:01.381Z,71.92
2018-10-09T07:50:05.941Z,71.97
2018-10-09T07:51:10.956Z,71.97
2018-10-09T07:52:17.628Z,71.85
2018-10-09T07:53:21.729Z,71.95
2018-10-09T07:54:25.843Z,71.79
2018-10-09T07:55:29.917Z,72.00
2018-10-09T07:56:33.970Z,71.70
2018-10-09T07:57:38.021Z,71.97
2018-10-09T07:58:42.207Z,71.89
2018-10-09T07:59:46.295Z,71.87
2018-10-09T08:00:50.449Z,71.64
2018-10-09T08:01:54.532Z,71.76
2018-10-09T08:02:58.618Z,71.55
2018-10-09T08:04:02.788Z,71.95
2018-10-09T08:05:06.953Z,72.09
2018-10-09T08:06:11.037Z,71.84
2018-10-09T08:07:15.126Z,72.21
2018-10-09T08:08:19.244Z,72.20
2018-10-09T08:09:23.332Z,72.04
2018-10-09T08:10:27.600Z,71.90
2018-10-09T08:11:31.783Z,71.68
2018-10-09T08:12:35.845Z,71.60
2018-10-09T08:13:40.053Z,71.77
2018-10-09T08:14:44.084Z,71.87
2018-10-09T08:15:48.212Z,71.47
2018-10-09T08:16:52.448Z,71.56
2018-10-09T08:17:56.598Z,71.79
2018-10-09T08:19:00.599Z,72.05
2018-10-09T08:20:04.969Z,71.63
2018-10-09T08:21:09.119Z,71.67
2018-10-09T08:22:13.330Z,71.67
2018-10-09T08:23:17.476Z,71.33
2018-10-09T08:24:21.533Z,71.73
2018-10-09T08:25:25.652Z,71.91
2018-10-09T08:26:29.883Z,71.43
2018-10-09T08:27:34.008Z,71.52
2018-10-09T08:28:38.644Z,71.10
2018-10-09T08:29:42.915Z,71.50
2018-10-09T08:30:46.961Z,71.63
2018-10-09T08:31:51.071Z,71.51
2018-10-09T08:32:55.209Z,71.07
2018-10-09T08:33:59.313Z,71.62
2018-10-09T08:35:03.525Z,71.29
2018-10-09T08:36:07.645Z,71.60
2018-10-09T08:37:11.795Z,71.32
2018-10-09T08:38:15.893Z,71.60
2018-10-09T08:39:20.053Z,71.08
2018-10-09T08:40:24.153Z,71.78
2018-10-09T08:41:28.261Z,71.67
2018-10-09T08:42:32.389Z,71.37
2018-10-09T08:43:36.508Z,71.13
2018-10-09T08:44:40.692Z,71.39
2018-10-09T08:45:51.237Z,71.36
2018-10-09T08:46:55.448Z,71.19
2018-10-09T08:47:59.678Z,71.15
2018-10-09T08:49:03.841Z,71.48
2018-10-09T08:50:07.937Z,71.28
2018-10-09T08:51:12.089Z,71.28
2018-10-09T08:52:16.201Z,71.12
2018-10-09T08:53:20.402Z,71.26
2018-10-09T08:54:24.682Z,70.87
2018-10-09T08:55:29.016Z,71.32
2018-10-09T08:56:33.211Z,70.93
2018-10-09T08:57:37.390Z,71.43
2018-10-09T08:58:41.440Z,71.03
2018-10-09T08:59:45.680Z,70.89
2018-10-09T09:00:49.876Z,71.39
2018-10-09T09:01:53.973Z,70.89
2018-10-09T09:02:58.092Z,70.68
2018-10-09T09:04:02.210Z,71.13
2018-10-09T09:05:06.556Z,71.06
2018-10-09T09:06:10.752Z,71.26
2018-10-09T09:07:15.648Z,71.09
2018-10-09T09:08:19.784Z,70.84
2018-10-09T09:09:23.906Z,71.16
2018-10-09T09:10:28.032Z,70.56
2018-10-09T09:11:32.147Z,70.48
2018-10-09T09:12:36.261Z,70.83
2018-10-09T09:13:40.357Z,70.67
2018-10-09T09:14:44.441Z,70.92
2018-10-09T09:15:48.769Z,70.54
2018-10-09T09:16:53.026Z,70.78
2018-10-09T09:17:57.887Z,70.64
2018-10-09T09:19:02.013Z,70.39
2018-10-09T09:20:06.049Z,70.88
2018-10-09T09:21:10.414Z,70.49
2018-10-09T09:22:14.594Z,70.47
2018-10-09T09:23:18.722Z,70.99
2018-10-09T09:24:22.917Z,71.00
2018-10-09T09:25:27.132Z,70.40
2018-10-09T09:26:31.292Z,70.45
2018-10-09T09:27:35.391Z,70.18
2018-10-09T09:28:39.453Z,70.63
2018-10-09T09:29:43.509Z,70.81
2018-10-09T09:30:47.696Z,70.39
2018-10-09T09:31:51.906Z,70.83
2018-10-09T09:32:56.324Z,70.29
2018-10-09T09:34:00.502Z,70.97
2018-10-09T09:35:04.664Z,70.49
2018-10-09T09:36:08.793Z,70.24
2018-10-09T09:37:12.816Z,70.81
2018-10-09T09:38:17.070Z,70.80
2018-10-09T09:39:21.093Z,70.84
2018-10-09T09:40:25.165Z,70.18
2018-10-09T09:41:29.346Z,70.85
2018-10-09T09:42:33.453Z,70.72
2018-10-09T09:43:37.570Z,70.03
2018-10-09T09:44:41.700Z,70.51
2018-10-09T09:45:45.942Z,70.42
2018-10-09T09:46:50.117Z,70.75
2018-10-09T09:47:54.261Z,70.64
2018-10-09T09:48:58.443Z,70.79
2018-10-09T09:50:02.566Z,70.71
2018-10-09T09:51:06.654Z,70.48
2018-10-09T09:52:10.735Z,70.71
2018-10-09T09:53:14.877Z,70.15
2018-10-09T09:54:18.969Z,70.39
2018-10-09T09:55:23.057Z,70.02
2018-10-09T09:56:28.004Z,70.15
2018-10-09T09:57:32.118Z,69.86
2018-10-09T09:58:36.413Z,70.62
2018-10-09T09:59:40.444Z,70.31
2018-10-09T10:00:50.002Z,70.66
2018-10-09T10:01:54.179Z,69.61
2018-10-09T10:02:58.260Z,70.33
2018-10-09T10:04:02.412Z,70.25
2018-10-09T10:05:06.537Z,70.16
2018-10-09T10:06:10.741Z,69.73
2018-10-09T10:07:14.797Z,69.96
2018-10-09T10:08:18.854Z,70.07
2018-10-09T10:09:23.033Z,69.95
2018-10-09T10:10:27.357Z,69.50
2018-10-09T10:11:31.444Z,69.40
2018-10-09T10:12:35.581Z,69.60
2018-10-09T10:13:39.851Z,69.41
2018-10-09T10:14:43.976Z,69.40
2018-10-09T10:15:48.578Z,68.93
2018-10-09T10:16:52.736Z,68.90
2018-10-09T10:17:56.861Z,68.91
2018-10-09T10:19:00.967Z,68.88
2018-10-09T10:20:05.101Z,68.03
2018-10-09T10:21:09.173Z,68.34
2018-10-09T10:22:13.331Z,68.54
2018-10-09T10:23:17.390Z,68.36
2018-10-09T10:24:21.591Z,67.71
2018-10-09T10:25:25.697Z,67.82
2018-10-09T10:26:29.829Z,68.06
2018-10-09T10:27:34.422Z,67.56
2018-10-09T10:28:38.626Z,67.35
2018-10-09T10:29:42.682Z,67.86
2018-10-09T10:30:47.064Z,67.84
2018-10-09T10:31:51.132Z,67.67
2018-10-09T10:32:55.181Z,67.27
2018-10-09T10:33:59.329Z,67.22
2018-10-09T10:35:03.834Z,67.82
2018-10-09T10:36:08.043Z,67.65
2018-10-09T10:37:12.133Z,67.86
2018-10-09T10:38:16.229Z,67.26
2018-10-09T10:39:20.517Z,67.29
2018-10-09T10:40:24.737Z,67.19
2018-10-09T10:41:28.805Z,67.49
2018-10-09T10:42:32.970Z,67.45
2018-10-09T10:43:37.029Z,67.17
2018-10-09T10:44:41.124Z,67.10
2018-10-09T10:45:45.290Z,67.08
2018-10-09T10:46:49.741Z,67.48
2018-10-09T10:47:53.775Z,67.10
2018-10-09T10:49:02.044Z,67.60
2018-10-09T10:50:06.129Z,67.04
2018-10-09T10:51:10.231Z,67.04
2018-10-09T10:52:14.332Z,67.66
2018-10-09T10:53:18.446Z,67.59
2018-10-09T10:54:22.590Z,66.96
2018-10-09T10:55:27.110Z,67.35
2018-10-09T10:56:31.349Z,66.93
2018-10-09T10:57:35.443Z,67.51
2018-10-09T10:58:39.541Z,67.52
2018-10-09T10:59:43.693Z,67.52
2018-10-09T11:00:47.776Z,67.00
2018-10-09T11:01:51.929Z,67.71
2018-10-09T11:02:56.074Z,67.07
2018-10-09T11:04:00.205Z,67.71
2018-10-09T11:05:04.607Z,67.66
2018-10-09T11:06:08.706Z,67.21
2018-10-09T11:07:12.845Z,67.23
2018-10-09T11:08:16.962Z,67.89
2018-10-09T11:09:21.308Z,67.22
2018-10-09T11:10:25.309Z,67.35
2018-10-09T11:11:29.530Z,67.85
2018-10-09T11:12:33.618Z,67.52
2018-10-09T11:13:37.700Z,67.62
2018-10-09T11:14:41.844Z,67.80
2018-10-09T11:15:45.826Z,67.94
2018-10-09T11:16:49.901Z,67.22
2018-10-09T11:17:53.996Z,67.23
2018-10-09T11:18:58.190Z,67.24
2018-10-09T11:20:02.350Z,67.73
2018-10-09T11:21:06.627Z,67.43
2018-10-09T11:22:10.686Z,67.53
2018-10-09T11:23:14.812Z,67.67
2018-10-09T11:24:18.881Z,67.11
2018-10-09T11:25:23.119Z,67.53
2018-10-09T11:26:27.297Z,67.08
2018-10-09T11:27:32.217Z,67.63
2018-10-09T11:28:36.469Z,67.09
2018-10-09T11:29:40.660Z,67.35
2018-10-09T11:30:44.801Z,67.62
2018-10-09T11:31:49.032Z,67.79
2018-10-09T11:32:53.093Z,67.38
2018-10-09T11:33:57.100Z,67.30
2018-10-09T11:35:01.238Z,67.63
2018-10-09T11:36:05.429Z,67.70
2018-10-09T11:37:09.547Z,67.00
2018-10-09T11:38:13.617Z,67.19
2018-10-09T11:39:17.766Z,67.27
2018-10-09T11:40:21.918Z,67.44
2018-10-09T11:41:26.356Z,67.20
2018-10-09T11:42:30.699Z,67.56
2018-10-09T11:43:34.799Z,67.30
2018-10-09T11:44:38.876Z,67.56
2018-10-09T11:45:43.098Z,67.80
2018-10-09T11:46:47.265Z,67.89
2018-10-09T11:47:51.381Z,67.50
2018-10-09T11:48:55.421Z,67.53
2018-10-09T11:50:01.158Z,67.33
2018-10-09T11:51:07.608Z,67.48
2018-10-09T11:52:11.674Z,67.87
2018-10-09T11:53:15.840Z,67.41
2018-10-09T11:54:19.973Z,67.76
2018-10-09T11:55:24.176Z,67.43
2018-10-09T11:56:28.527Z,67.03
2018-10-09T11:57:32.775Z,66.90
2018-10-09T11:58:36.853Z,66.92
2018-10-09T11:59:40.937Z,66.75
2018-10-09T12:00:46.273Z,66.68
2018-10-09T12:01:50.504Z,66.68
2018-10-09T12:02:54.707Z,67.16
2018-10-09T12:03:59.038Z,67.04
2018-10-09T12:05:03.269Z,66.69
2018-10-09T12:06:07.482Z,66.47
2018-10-09T12:07:11.852Z,66.12
2018-10-09T12:08:15.964Z,66.23
2018-10-09T12:09:20.067Z,66.82
2018-10-09T12:10:24.136Z,66.00
2018-10-09T12:11:28.208Z,66.03
2018-10-09T12:12:32.342Z,66.48
2018-10-09T12:13:37.131Z,66.67
2018-10-09T12:14:41.274Z,66.37
2018-10-09T12:15:45.543Z,66.47
2018-10-09T12:16:49.502Z,65.93
2018-10-09T12:17:53.673Z,66.17
2018-10-09T12:18:57.809Z,66.51
2018-10-09T12:20:01.892Z,65.95
2018-10-09T12:21:05.956Z,66.53
2018-10-09T12:22:10.147Z,65.63
2018-10-09T12:23:14.184Z,65.67
2018-10-09T12:24:18.419Z,65.88
2018-10-09T12:25:22.630Z,66.17
2018-10-09T12:26:26.897Z,65.70
2018-10-09T12:27:30.976Z,66.09
2018-10-09T12:28:35.433Z,65.51
2018-10-09T12:29:39.589Z,66.16
2018-10-09T12:30:43.764Z,65.74
2018-10-09T12:31:47.842Z,65.84
2018-10-09T12:32:51.924Z,65.73
2018-10-09T12:33:56.030Z,65.24
2018-10-09T12:35:00.242Z,65.97
2018-10-09T12:36:04.661Z,65.88
2018-10-09T12:37:09.083Z,65.78
2018-10-09T12:38:13.393Z,65.44
2018-10-09T12:39:17.467Z,65.79
2018-10-09T12:40:21.563Z,65.65
2018-10-09T12:41:25.688Z,65.73
2018-10-09T12:42:29.827Z,65.65
2018-10-09T12:43:33.886Z,64.87
2018-10-09T12:44:38.063Z,65.28
2018-10-09T12:45:42.217Z,65.15
2018-10-09T12:46:46.406Z,64.91
2018-10-09T12:47:50.572Z,65.49
2018-10-09T12:48:54.849Z,64.73
2018-10-09T12:49:59.636Z,65.02
2018-10-09T12:51:03.794Z,64.68
2018-10-09T12:52:07.998Z,65.18
2018-10-09T12:53:12.424Z,64.77
2018-10-09T12:54:16.493Z,64.46
2018-10-09T12:55:20.546Z,64.26
2018-10-09T12:56:24.647Z,64.42
2018-10-09T12:57:28.763Z,64.47
2018-10-09T12:58:32.919Z,64.18
2018-10-09T12:59:37.002Z,64.42
2018-10-09T13:00:41.060Z,64.17
2018-10-09T13:01:45.098Z,64.37
2018-10-09T13:02:49.262Z,64.44
2018-10-09T13:03:53.327Z,64.52
2018-10-09T13:04:57.375Z,63.84
2018-10-09T13:06:01.600Z,63.94
2018-10-09T13:07:05.677Z,64.08
2018-10-09T13:08:09.984Z,64.15
2018-10-09T13:09:14.542Z,63.70
2018-10-09T13:10:18.638Z,63.30
2018-10-09T13:11:22.768Z,63.35
2018-10-09T13:12:26.910Z,63.87
2018-10-09T13:13:31.044Z,63.57
2018-10-09T13:14:35.167Z,63.49
2018-10-09T13:15:40.209Z,63.28
2018-10-09T13:16:44.359Z,63.01
2018-10-09T13:17:48.858Z,62.84
2018-10-09T13:18:52.903Z,62.86
2018-10-09T13:19:57.010Z,63.37
2018-10-09T13:21:01.313Z,63.27
2018-10-09T13:22:05.573Z,62.93
2018-10-09T13:23:09.479Z,62.59
2018-10-09T13:24:13.515Z,63.27
2018-10-09T13:25:17.638Z,63.38
2018-10-09T13:26:21.615Z,63.19
2018-10-09T13:27:25.706Z,63.02
2018-10-09T13:28:29.717Z,63.00
2018-10-09T13:29:33.856Z,62.85
2018-10-09T13:30:38.170Z,62.75
2018-10-09T13:31:42.202Z,62.50
2018-10-09T13:32:46.381Z,62.05
2018-10-09T13:33:50.572Z,62.84
2018-10-09T13:34:54.719Z,63.05
2018-10-09T13:35:58.755Z,62.73
2018-10-09T13:37:02.827Z,62.54
2018-10-09T13:38:07.003Z,63.05
2018-10-09T13:39:11.024Z,63.05
2018-10-09T13:40:15.120Z,62.79
2018-10-09T13:41:19.193Z,62.40
2018-10-09T13:42:23.322Z,62.38
2018-10-09T13:43:27.407Z,62.50
2018-10-09T13:44:31.626Z,62.48
2018-10-09T13:45:35.795Z,62.75
2018-10-09T13:46:40.266Z,62.76
2018-10-09T13:47:44.475Z,62.09